sensor_id;sensor_type;location;lat;lon;timestamp;pressure;altitude;pressure_sealevel;temperature;humidity
76122;BME280;70471;53.200;6.080;2024-01-27T00:04:28;103199.88;;;20.57;31.98
76122;BME280;70471;53.200;6.080;2024-01-27T00:09:20;103209.06;;;20.45;31.92
76122;BME280;70471;53.200;6.080;2024-01-27T00:14:13;103232.41;;;20.49;32.05
76122;BME280;70471;53.200;6.080;2024-01-27T00:19:05;103241.91;;;20.53;32.05
76122;BME280;70471;53.200;6.080;2024-01-27T00:23:57;103220.28;;;20.38;31.67
76122;BME280;70471;53.200;6.080;2024-01-27T00:28:51;103186.25;;;20.14;32.15
76122;BME280;70471;53.200;6.080;2024-01-27T00:33:45;103205.00;;;20.36;31.78
76122;BME280;70471;53.200;6.080;2024-01-27T00:38:37;103237.94;;;20.49;31.99
76122;BME280;70471;53.200;6.080;2024-01-27T00:43:29;103243.13;;;20.46;31.93
76122;BME280;70471;53.200;6.080;2024-01-27T00:48:21;103248.19;;;20.49;31.76
76122;BME280;70471;53.200;6.080;2024-01-27T00:53:15;103217.63;;;20.32;31.38
76122;BME280;70471;53.200;6.080;2024-01-27T00:58:07;103244.59;;;20.48;31.28
76122;BME280;70471;53.200;6.080;2024-01-27T01:02:59;103218.25;;;20.34;31.39
76122;BME280;70471;53.200;6.080;2024-01-27T01:07:51;103254.56;;;20.49;31.64
76122;BME280;70471;53.200;6.080;2024-01-27T01:12:44;103243.28;;;20.39;31.52
76122;BME280;70471;53.200;6.080;2024-01-27T01:17:36;103252.03;;;20.48;31.71
76122;BME280;70471;53.200;6.080;2024-01-27T01:22:29;103231.72;;;20.42;31.71
76122;BME280;70471;53.200;6.080;2024-01-27T01:27:21;103253.47;;;20.50;31.53
76122;BME280;70471;53.200;6.080;2024-01-27T01:32:14;103246.25;;;20.49;31.62
76122;BME280;70471;53.200;6.080;2024-01-27T01:37:07;103239.63;;;20.50;31.45
76122;BME280;70471;53.200;6.080;2024-01-27T01:41:59;103233.25;;;20.50;31.08
76122;BME280;70471;53.200;6.080;2024-01-27T01:46:51;103251.78;;;20.49;31.23
76122;BME280;70471;53.200;6.080;2024-01-27T01:51:44;103260.31;;;20.60;30.86
76122;BME280;70471;53.200;6.080;2024-01-27T01:56:37;103264.41;;;20.57;31.34
76122;BME280;70471;53.200;6.080;2024-01-27T02:01:29;103263.00;;;20.54;30.88
76122;BME280;70471;53.200;6.080;2024-01-27T02:06:21;103274.66;;;20.57;31.42
76122;BME280;70471;53.200;6.080;2024-01-27T02:11:15;103229.69;;;20.37;31.22
76122;BME280;70471;53.200;6.080;2024-01-27T02:16:06;103243.72;;;20.48;31.35
76122;BME280;70471;53.200;6.080;2024-01-27T02:20:58;103264.66;;;20.55;30.93
76122;BME280;70471;53.200;6.080;2024-01-27T02:25:52;103260.97;;;20.50;30.97
76122;BME280;70471;53.200;6.080;2024-01-27T02:30:44;103240.94;;;20.48;30.68
76122;BME280;70471;53.200;6.080;2024-01-27T02:35:36;103256.72;;;20.47;31.14
76122;BME280;70471;53.200;6.080;2024-01-27T02:40:28;103263.56;;;20.57;30.76
76122;BME280;70471;53.200;6.080;2024-01-27T02:45:22;103264.16;;;20.59;30.67
76122;BME280;70471;53.200;6.080;2024-01-27T02:50:14;103261.88;;;20.55;30.71
76122;BME280;70471;53.200;6.080;2024-01-27T02:55:07;103247.88;;;20.62;30.79
76122;BME280;70471;53.200;6.080;2024-01-27T02:59:59;103253.06;;;20.59;30.69
76122;BME280;70471;53.200;6.080;2024-01-27T03:04:52;103263.09;;;20.60;30.51
76122;BME280;70471;53.200;6.080;2024-01-27T03:09:44;103263.09;;;20.60;30.42
76122;BME280;70471;53.200;6.080;2024-01-27T03:14:37;103275.81;;;20.61;30.89
76122;BME280;70471;53.200;6.080;2024-01-27T03:19:29;103275.47;;;20.57;30.35
76122;BME280;70471;53.200;6.080;2024-01-27T03:24:22;103255.03;;;20.46;30.92
76122;BME280;70471;53.200;6.080;2024-01-27T03:29:15;103280.88;;;20.64;30.71
76122;BME280;70471;53.200;6.080;2024-01-27T03:34:07;103278.34;;;20.62;30.45
76122;BME280;70471;53.200;6.080;2024-01-27T03:38:59;103264.91;;;20.54;30.33
76122;BME280;70471;53.200;6.080;2024-01-27T03:43:55;103283.66;;;20.64;30.45
76122;BME280;70471;53.200;6.080;2024-01-27T03:48:47;103285.25;;;20.60;30.32
76122;BME280;70471;53.200;6.080;2024-01-27T03:53:39;103297.00;;;20.67;30.09
76122;BME280;70471;53.200;6.080;2024-01-27T03:58:31;103291.38;;;20.62;30.72
76122;BME280;70471;53.200;6.080;2024-01-27T04:03:25;103283.06;;;20.62;30.47
76122;BME280;70471;53.200;6.080;2024-01-27T04:08:17;103245.56;;;20.42;30.18
76122;BME280;70471;53.200;6.080;2024-01-27T04:13:09;103273.91;;;20.61;30.55
76122;BME280;70471;53.200;6.080;2024-01-27T04:18:01;103294.22;;;20.67;30.49
76122;BME280;70471;53.200;6.080;2024-01-27T04:22:55;103282.47;;;20.60;30.54
76122;BME280;70471;53.200;6.080;2024-01-27T04:27:47;103292.91;;;20.69;29.88
76122;BME280;70471;53.200;6.080;2024-01-27T04:32:39;103277.63;;;20.67;30.18
76122;BME280;70471;53.200;6.080;2024-01-27T04:37:31;103252.00;;;20.60;30.23
76122;BME280;70471;53.200;6.080;2024-01-27T04:42:25;103271.25;;;20.66;29.88
76122;BME280;70471;53.200;6.080;2024-01-27T04:47:17;103230.38;;;20.45;29.78
76122;BME280;70471;53.200;6.080;2024-01-27T04:52:09;103271.47;;;20.65;30.34
76122;BME280;70471;53.200;6.080;2024-01-27T04:57:01;103241.19;;;20.46;30.17
76122;BME280;70471;53.200;6.080;2024-01-27T05:01:55;103274.59;;;20.68;29.91
76122;BME280;70471;53.200;6.080;2024-01-27T05:06:47;103259.22;;;20.61;29.97
76122;BME280;70471;53.200;6.080;2024-01-27T05:11:39;103267.72;;;20.71;29.83
76122;BME280;70471;53.200;6.080;2024-01-27T05:16:33;103265.13;;;20.64;29.68
76122;BME280;70471;53.200;6.080;2024-01-27T05:21:27;103276.13;;;20.76;30.10
76122;BME280;70471;53.200;6.080;2024-01-27T05:26:19;103264.16;;;20.59;30.08
76122;BME280;70471;53.200;6.080;2024-01-27T05:31:10;103266.91;;;20.70;29.95
76122;BME280;70471;53.200;6.080;2024-01-27T05:36:02;103255.34;;;20.62;29.61
76122;BME280;70471;53.200;6.080;2024-01-27T05:40:56;103280.59;;;20.77;30.01
76122;BME280;70471;53.200;6.080;2024-01-27T05:45:48;103269.19;;;20.73;29.59
76122;BME280;70471;53.200;6.080;2024-01-27T05:50:42;103261.00;;;20.67;29.59
76122;BME280;70471;53.200;6.080;2024-01-27T05:55:34;103276.72;;;20.78;29.34
76122;BME280;70471;53.200;6.080;2024-01-27T06:00:27;103294.22;;;20.79;29.55
76122;BME280;70471;53.200;6.080;2024-01-27T06:05:19;103280.59;;;20.77;29.51
76122;BME280;70471;53.200;6.080;2024-01-27T06:10:11;103290.56;;;20.78;29.40
76122;BME280;70471;53.200;6.080;2024-01-27T06:15:05;103234.38;;;20.37;29.94
76122;BME280;70471;53.200;6.080;2024-01-27T06:20:01;103302.19;;;20.75;29.67
76122;BME280;70471;53.200;6.080;2024-01-27T06:24:54;103281.59;;;20.71;29.37
76122;BME280;70471;53.200;6.080;2024-01-27T06:29:46;103289.41;;;20.74;29.68
76122;BME280;70471;53.200;6.080;2024-01-27T06:34:38;103271.56;;;20.70;29.50
76122;BME280;70471;53.200;6.080;2024-01-27T06:39:32;103305.53;;;20.77;29.64
76122;BME280;70471;53.200;6.080;2024-01-27T06:44:24;103303.69;;;20.83;29.29
76122;BME280;70471;53.200;6.080;2024-01-27T06:49:16;103306.69;;;20.81;29.28
76122;BME280;70471;53.200;6.080;2024-01-27T06:54:08;103304.56;;;20.83;29.52
76122;BME280;70471;53.200;6.080;2024-01-27T06:59:02;103307.56;;;20.82;29.11
76122;BME280;70471;53.200;6.080;2024-01-27T07:03:54;103285.69;;;20.68;29.03
76122;BME280;70471;53.200;6.080;2024-01-27T07:08:46;103318.66;;;20.82;29.15
76122;BME280;70471;53.200;6.080;2024-01-27T07:13:38;103299.78;;;20.67;29.47
76122;BME280;70471;53.200;6.080;2024-01-27T07:18:31;103299.53;;;20.68;29.36
76122;BME280;70471;53.200;6.080;2024-01-27T07:23:25;103316.88;;;20.76;29.14
76122;BME280;70471;53.200;6.080;2024-01-27T07:28:17;103311.66;;;20.79;29.32
76122;BME280;70471;53.200;6.080;2024-01-27T07:33:09;103320.25;;;21.06;29.21
76122;BME280;70471;53.200;6.080;2024-01-27T07:38:02;103313.75;;;21.30;29.00
76122;BME280;70471;53.200;6.080;2024-01-27T07:42:54;103333.31;;;21.40;29.04
76122;BME280;70471;53.200;6.080;2024-01-27T07:47:46;103340.75;;;21.51;28.72
76122;BME280;70471;53.200;6.080;2024-01-27T07:52:38;103311.41;;;21.55;28.96
76122;BME280;70471;53.200;6.080;2024-01-27T07:57:31;103333.03;;;21.87;29.25
76122;BME280;70471;53.200;6.080;2024-01-27T08:02:23;103347.72;;;22.05;29.35
76122;BME280;70471;53.200;6.080;2024-01-27T08:07:16;103346.88;;;22.21;28.94
76122;BME280;70471;53.200;6.080;2024-01-27T08:12:09;103364.19;;;22.28;28.47
76122;BME280;70471;53.200;6.080;2024-01-27T08:17:02;103369.91;;;22.39;28.49
76122;BME280;70471;53.200;6.080;2024-01-27T08:21:54;103367.44;;;22.42;28.57
76122;BME280;70471;53.200;6.080;2024-01-27T08:26:47;103348.00;;;22.42;28.37
76122;BME280;70471;53.200;6.080;2024-01-27T08:31:39;103365.16;;;22.56;28.07
76122;BME280;70471;53.200;6.080;2024-01-27T08:36:34;103356.75;;;22.51;28.13
76122;BME280;70471;53.200;6.080;2024-01-27T08:41:26;103356.22;;;22.54;27.97
76122;BME280;70471;53.200;6.080;2024-01-27T08:46:18;103373.56;;;22.61;28.21
76122;BME280;70471;53.200;6.080;2024-01-27T08:51:12;103370.97;;;22.77;27.87
76122;BME280;70471;53.200;6.080;2024-01-27T08:56:08;103369.94;;;22.83;27.76
76122;BME280;70471;53.200;6.080;2024-01-27T09:01:00;103375.63;;;22.93;27.83
76122;BME280;70471;53.200;6.080;2024-01-27T09:05:55;103382.66;;;23.01;27.83
76122;BME280;70471;53.200;6.080;2024-01-27T09:10:47;103367.31;;;22.98;27.76
76122;BME280;70471;53.200;6.080;2024-01-27T09:15:41;103383.78;;;23.05;27.74
76122;BME280;70471;53.200;6.080;2024-01-27T09:20:33;103367.16;;;22.83;27.89
76122;BME280;70471;53.200;6.080;2024-01-27T09:25:24;103385.00;;;22.87;27.81
76122;BME280;70471;53.200;6.080;2024-01-27T09:30:18;103380.59;;;22.91;27.94
76122;BME280;70471;53.200;6.080;2024-01-27T09:35:12;103379.63;;;22.80;27.92
76122;BME280;70471;53.200;6.080;2024-01-27T09:40:05;103366.44;;;22.70;28.35
76122;BME280;70471;53.200;6.080;2024-01-27T09:44:58;103378.59;;;22.64;28.09
76122;BME280;70471;53.200;6.080;2024-01-27T09:49:51;103363.16;;;22.51;28.06
76122;BME280;70471;53.200;6.080;2024-01-27T09:54:45;103352.06;;;22.34;28.36
76122;BME280;70471;53.200;6.080;2024-01-27T09:59:38;103374.34;;;22.40;28.53
76122;BME280;70471;53.200;6.080;2024-01-27T10:04:35;103387.31;;;22.34;28.55
76122;BME280;70471;53.200;6.080;2024-01-27T10:09:27;103379.84;;;22.17;28.29
76122;BME280;70471;53.200;6.080;2024-01-27T10:14:20;103401.81;;;22.19;28.82
76122;BME280;70471;53.200;6.080;2024-01-27T10:19:15;103398.56;;;22.05;28.81
76122;BME280;70471;53.200;6.080;2024-01-27T10:24:08;103414.69;;;22.08;28.61
76122;BME280;70471;53.200;6.080;2024-01-27T10:29:00;103413.19;;;22.01;29.02
76122;BME280;70471;53.200;6.080;2024-01-27T10:33:54;103420.91;;;21.98;28.62
76122;BME280;70471;53.200;6.080;2024-01-27T10:38:47;103415.78;;;21.90;29.03
76122;BME280;70471;53.200;6.080;2024-01-27T10:43:39;103422.97;;;21.86;29.26
76122;BME280;70471;53.200;6.080;2024-01-27T10:48:31;103417.31;;;21.81;29.14
76122;BME280;70471;53.200;6.080;2024-01-27T10:53:28;103410.81;;;21.75;29.08
76122;BME280;70471;53.200;6.080;2024-01-27T10:58:23;103384.03;;;21.52;29.30
76122;BME280;70471;53.200;6.080;2024-01-27T11:03:18;103405.22;;;21.58;29.52
76122;BME280;70471;53.200;6.080;2024-01-27T11:08:12;103412.03;;;21.51;29.65
76122;BME280;70471;53.200;6.080;2024-01-27T11:13:07;103406.63;;;21.44;29.61
76122;BME280;70471;53.200;6.080;2024-01-27T11:18:00;103422.88;;;21.52;29.93
76122;BME280;70471;53.200;6.080;2024-01-27T11:22:54;103421.09;;;21.46;30.03
76122;BME280;70471;53.200;6.080;2024-01-27T11:27:48;103411.84;;;21.40;31.06
76122;BME280;70471;53.200;6.080;2024-01-27T11:32:43;103381.88;;;21.25;31.16
76122;BME280;70471;53.200;6.080;2024-01-27T11:37:35;103416.16;;;21.48;31.49
76122;BME280;70471;53.200;6.080;2024-01-27T11:42:28;103426.38;;;21.48;31.69
76122;BME280;70471;53.200;6.080;2024-01-27T11:47:20;103430.28;;;21.47;32.02
76122;BME280;70471;53.200;6.080;2024-01-27T11:52:14;103428.25;;;21.42;32.01
76122;BME280;70471;53.200;6.080;2024-01-27T11:57:07;103417.38;;;21.40;31.91
76122;BME280;70471;53.200;6.080;2024-01-27T12:02:00;103426.06;;;21.44;31.83
76122;BME280;70471;53.200;6.080;2024-01-27T12:06:53;103410.41;;;21.38;31.74
76122;BME280;70471;53.200;6.080;2024-01-27T12:11:47;103400.75;;;21.40;31.98
76122;BME280;70471;53.200;6.080;2024-01-27T12:16:39;103399.88;;;21.40;31.74
76122;BME280;70471;53.200;6.080;2024-01-27T12:21:32;103417.41;;;21.57;31.73
76122;BME280;70471;53.200;6.080;2024-01-27T12:26:26;103393.34;;;21.46;31.79
76122;BME280;70471;53.200;6.080;2024-01-27T12:31:19;103405.16;;;21.53;31.41
76122;BME280;70471;53.200;6.080;2024-01-27T12:36:12;103424.66;;;21.58;31.82
76122;BME280;70471;53.200;6.080;2024-01-27T12:41:04;103420.19;;;21.57;31.80
76122;BME280;70471;53.200;6.080;2024-01-27T12:45:56;103396.97;;;21.47;31.83
76122;BME280;70471;53.200;6.080;2024-01-27T12:50:50;103393.19;;;21.53;31.91
76122;BME280;70471;53.200;6.080;2024-01-27T12:55:42;103411.09;;;21.62;31.42
76122;BME280;70471;53.200;6.080;2024-01-27T13:00:35;103418.16;;;21.53;31.33
76122;BME280;70471;53.200;6.080;2024-01-27T13:05:27;103377.69;;;21.23;31.24
76122;BME280;70471;53.200;6.080;2024-01-27T13:10:21;103414.63;;;21.40;31.08
76122;BME280;70471;53.200;6.080;2024-01-27T13:15:13;103413.00;;;21.27;31.14
76122;BME280;70471;53.200;6.080;2024-01-27T13:20:06;103424.56;;;21.24;31.49
76122;BME280;70471;53.200;6.080;2024-01-27T13:24:58;103393.66;;;21.04;31.90
76122;BME280;70471;53.200;6.080;2024-01-27T13:29:54;103419.91;;;21.13;32.01
76122;BME280;70471;53.200;6.080;2024-01-27T13:34:46;103411.47;;;21.08;31.70
76122;BME280;70471;53.200;6.080;2024-01-27T13:39:38;103373.69;;;20.78;32.35
76122;BME280;70471;53.200;6.080;2024-01-27T13:44:30;103409.06;;;21.00;32.19
76122;BME280;70471;53.200;6.080;2024-01-27T13:49:27;103410.75;;;21.01;32.48
76122;BME280;70471;53.200;6.080;2024-01-27T13:54:19;103400.06;;;20.92;32.35
76122;BME280;70471;53.200;6.080;2024-01-27T13:59:12;103393.22;;;20.83;32.36
76122;BME280;70471;53.200;6.080;2024-01-27T14:04:04;103420.31;;;20.93;32.39
76122;BME280;70471;53.200;6.080;2024-01-27T14:08:59;103420.88;;;20.95;32.23
76122;BME280;70471;53.200;6.080;2024-01-27T14:13:51;103417.28;;;20.95;32.79
76122;BME280;70471;53.200;6.080;2024-01-27T14:18:43;103429.53;;;20.99;32.90
76122;BME280;70471;53.200;6.080;2024-01-27T14:23:35;103417.78;;;20.91;32.29
76122;BME280;70471;53.200;6.080;2024-01-27T14:28:30;103429.78;;;20.97;32.42
76122;BME280;70471;53.200;6.080;2024-01-27T14:33:22;103413.06;;;20.92;32.49
76122;BME280;70471;53.200;6.080;2024-01-27T14:38:15;103402.13;;;20.85;32.60
76122;BME280;70471;53.200;6.080;2024-01-27T14:43:07;103430.16;;;21.01;32.76
76122;BME280;70471;53.200;6.080;2024-01-27T14:48:04;103431.72;;;20.97;32.64
76122;BME280;70471;53.200;6.080;2024-01-27T14:52:57;103442.31;;;21.00;33.36
76122;BME280;70471;53.200;6.080;2024-01-27T14:57:49;103438.97;;;20.98;33.80
76122;BME280;70471;53.200;6.080;2024-01-27T15:02:42;103447.38;;;21.03;33.30
76122;BME280;70471;53.200;6.080;2024-01-27T15:07:37;103430.25;;;21.06;33.15
76122;BME280;70471;53.200;6.080;2024-01-27T15:12:30;103424.63;;;21.01;33.23
76122;BME280;70471;53.200;6.080;2024-01-27T15:17:22;103431.75;;;21.08;33.40
76122;BME280;70471;53.200;6.080;2024-01-27T15:22:16;103437.03;;;21.10;33.18
76122;BME280;70471;53.200;6.080;2024-01-27T15:27:10;103429.81;;;21.09;33.66
76122;BME280;70471;53.200;6.080;2024-01-27T15:32:03;103440.75;;;21.16;33.73
76122;BME280;70471;53.200;6.080;2024-01-27T15:36:56;103422.19;;;21.04;33.31
76122;BME280;70471;53.200;6.080;2024-01-27T15:41:48;103432.53;;;21.21;32.96
76122;BME280;70471;53.200;6.080;2024-01-27T15:46:42;103432.91;;;21.24;33.50
76122;BME280;70471;53.200;6.080;2024-01-27T15:51:33;103418.78;;;21.26;33.23
76122;BME280;70471;53.200;6.080;2024-01-27T15:56:26;103394.34;;;21.11;32.98
76122;BME280;70471;53.200;6.080;2024-01-27T16:01:18;103423.59;;;21.31;33.13
76122;BME280;70471;53.200;6.080;2024-01-27T16:06:12;103438.03;;;21.33;33.29
76122;BME280;70471;53.200;6.080;2024-01-27T16:11:04;103424.19;;;21.33;32.95
76122;BME280;70471;53.200;6.080;2024-01-27T16:15:56;103428.13;;;21.37;33.23
76122;BME280;70471;53.200;6.080;2024-01-27T16:20:49;103437.63;;;21.41;32.90
76122;BME280;70471;53.200;6.080;2024-01-27T16:25:43;103437.63;;;21.41;33.11
76122;BME280;70471;53.200;6.080;2024-01-27T16:30:35;103437.16;;;21.44;32.82
76122;BME280;70471;53.200;6.080;2024-01-27T16:35:28;103442.34;;;21.40;32.65
76122;BME280;70471;53.200;6.080;2024-01-27T16:40:20;103448.16;;;21.39;32.38
76122;BME280;70471;53.200;6.080;2024-01-27T16:45:13;103437.78;;;21.34;32.72
76122;BME280;70471;53.200;6.080;2024-01-27T16:50:06;103448.16;;;21.39;32.68
76122;BME280;70471;53.200;6.080;2024-01-27T16:54:58;103440.22;;;21.31;32.35
76122;BME280;70471;53.200;6.080;2024-01-27T16:59:49;103468.88;;;21.36;32.66
76122;BME280;70471;53.200;6.080;2024-01-27T17:04:45;103453.69;;;21.39;32.93
76122;BME280;70471;53.200;6.080;2024-01-27T17:09:39;103455.34;;;21.40;32.84
76122;BME280;70471;53.200;6.080;2024-01-27T17:14:32;103453.78;;;21.44;32.49
76122;BME280;70471;53.200;6.080;2024-01-27T17:19:24;103453.78;;;21.44;32.76
76122;BME280;70471;53.200;6.080;2024-01-27T17:24:20;103429.63;;;21.27;32.64
76122;BME280;70471;53.200;6.080;2024-01-27T17:29:12;103454.03;;;21.42;32.64
76122;BME280;70471;53.200;6.080;2024-01-27T17:34:04;103434.69;;;21.31;32.53
76122;BME280;70471;53.200;6.080;2024-01-27T17:38:56;103440.56;;;21.34;32.54
76122;BME280;70471;53.200;6.080;2024-01-27T17:43:49;103440.31;;;21.36;32.42
76122;BME280;70471;53.200;6.080;2024-01-27T17:48:42;103442.84;;;21.37;32.02
76122;BME280;70471;53.200;6.080;2024-01-27T17:53:35;103435.25;;;21.33;32.14
76122;BME280;70471;53.200;6.080;2024-01-27T17:58:26;103417.59;;;21.22;32.17
76122;BME280;70471;53.200;6.080;2024-01-27T18:03:20;103445.38;;;21.39;32.08
76122;BME280;70471;53.200;6.080;2024-01-27T18:08:12;103438.63;;;21.35;31.51
76122;BME280;70471;53.200;6.080;2024-01-27T18:13:04;103436.25;;;21.26;31.62
76122;BME280;70471;53.200;6.080;2024-01-27T18:17:56;103436.00;;;21.28;31.93
76122;BME280;70471;53.200;6.080;2024-01-27T18:22:50;103430.94;;;21.25;31.73
76122;BME280;70471;53.200;6.080;2024-01-27T18:27:42;103435.66;;;21.24;31.43
76122;BME280;70471;53.200;6.080;2024-01-27T18:32:35;103427.59;;;21.23;31.47
76122;BME280;70471;53.200;6.080;2024-01-27T18:37:27;103443.84;;;21.31;31.34
76122;BME280;70471;53.200;6.080;2024-01-27T18:42:20;103445.63;;;21.37;31.73
76122;BME280;70471;53.200;6.080;2024-01-27T18:47:12;103431.50;;;21.39;32.40
76122;BME280;70471;53.200;6.080;2024-01-27T18:52:05;103431.38;;;21.34;32.36
76122;BME280;70471;53.200;6.080;2024-01-27T18:56:57;103445.97;;;21.41;32.46
76122;BME280;70471;53.200;6.080;2024-01-27T19:01:52;103431.91;;;21.31;32.51
76122;BME280;70471;53.200;6.080;2024-01-27T19:06:47;103442.69;;;21.44;31.85
76122;BME280;70471;53.200;6.080;2024-01-27T19:11:41;103440.75;;;21.44;31.69
76122;BME280;70471;53.200;6.080;2024-01-27T19:16:33;103442.69;;;21.44;31.66
76122;BME280;70471;53.200;6.080;2024-01-27T19:21:27;103446.06;;;21.46;31.64
76122;BME280;70471;53.200;6.080;2024-01-27T19:26:18;103452.94;;;21.43;31.68
76122;BME280;70471;53.200;6.080;2024-01-27T19:31:11;103426.38;;;21.31;32.04
76122;BME280;70471;53.200;6.080;2024-01-27T19:36:05;103425.00;;;21.33;32.03
76122;BME280;70471;53.200;6.080;2024-01-27T19:40:58;103435.94;;;21.40;32.14
76122;BME280;70471;53.200;6.080;2024-01-27T19:45:50;103434.88;;;21.41;32.34
76122;BME280;70471;53.200;6.080;2024-01-27T19:50:42;103431.97;;;21.64;31.94
76122;BME280;70471;53.200;6.080;2024-01-27T19:55:33;103431.78;;;22.00;31.21
76122;BME280;70471;53.200;6.080;2024-01-27T20:00:27;103434.06;;;22.20;31.18
76122;BME280;70471;53.200;6.080;2024-01-27T20:05:20;103426.09;;;22.46;30.79
76122;BME280;70471;53.200;6.080;2024-01-27T20:10:12;103420.84;;;22.66;30.59
76122;BME280;70471;53.200;6.080;2024-01-27T20:15:05;103421.94;;;22.65;30.49
76122;BME280;70471;53.200;6.080;2024-01-27T20:19:59;103434.31;;;22.75;30.00
76122;BME280;70471;53.200;6.080;2024-01-27T20:24:51;103418.50;;;22.75;30.27
76122;BME280;70471;53.200;6.080;2024-01-27T20:29:43;103444.97;;;22.61;30.13
76122;BME280;70471;53.200;6.080;2024-01-27T20:34:35;103437.72;;;22.43;30.39
76122;BME280;70471;53.200;6.080;2024-01-27T20:39:29;103440.09;;;22.34;30.84
76122;BME280;70471;53.200;6.080;2024-01-27T20:44:21;103441.88;;;22.23;31.03
76122;BME280;70471;53.200;6.080;2024-01-27T20:49:13;103421.34;;;22.07;30.79
76122;BME280;70471;53.200;6.080;2024-01-27T20:54:04;103426.06;;;22.07;31.09
76122;BME280;70471;53.200;6.080;2024-01-27T20:58:58;103422.19;;;21.91;31.31
76122;BME280;70471;53.200;6.080;2024-01-27T21:03:50;103422.78;;;21.93;30.98
76122;BME280;70471;53.200;6.080;2024-01-27T21:08:42;103422.09;;;21.86;30.91
76122;BME280;70471;53.200;6.080;2024-01-27T21:13:34;103420.06;;;21.81;31.43
76122;BME280;70471;53.200;6.080;2024-01-27T21:18:29;103418.00;;;21.76;31.04
76122;BME280;70471;53.200;6.080;2024-01-27T21:23:22;103409.59;;;21.71;30.93
76122;BME280;70471;53.200;6.080;2024-01-27T21:28:14;103345.69;;;21.32;31.38
76122;BME280;70471;53.200;6.080;2024-01-27T21:33:06;103405.31;;;21.63;31.16
76122;BME280;70471;53.200;6.080;2024-01-27T21:38:01;103397.91;;;21.52;31.03
76122;BME280;70471;53.200;6.080;2024-01-27T21:42:54;103401.66;;;21.46;31.12
76122;BME280;70471;53.200;6.080;2024-01-27T21:47:46;103400.50;;;21.42;30.78
76122;BME280;70471;53.200;6.080;2024-01-27T21:52:38;103390.41;;;21.36;31.06
76122;BME280;70471;53.200;6.080;2024-01-27T21:57:32;103396.44;;;21.33;30.86
76122;BME280;70471;53.200;6.080;2024-01-27T22:02:23;103379.09;;;21.25;30.56
76122;BME280;70471;53.200;6.080;2024-01-27T22:07:16;103393.09;;;21.31;30.54
76122;BME280;70471;53.200;6.080;2024-01-27T22:12:08;103382.75;;;21.26;30.43
76122;BME280;70471;53.200;6.080;2024-01-27T22:17:03;103375.75;;;21.23;30.44
76122;BME280;70471;53.200;6.080;2024-01-27T22:21:55;103354.47;;;21.12;30.34
76122;BME280;70471;53.200;6.080;2024-01-27T22:26:47;103369.50;;;21.16;30.07
76122;BME280;70471;53.200;6.080;2024-01-27T22:31:40;103373.03;;;21.12;30.31
76122;BME280;70471;53.200;6.080;2024-01-27T22:36:34;103336.94;;;20.83;30.16
76122;BME280;70471;53.200;6.080;2024-01-27T22:41:26;103371.47;;;21.04;30.33
76122;BME280;70471;53.200;6.080;2024-01-27T22:46:18;103344.88;;;20.91;30.39
76122;BME280;70471;53.200;6.080;2024-01-27T22:51:11;103358.75;;;20.91;30.13
76122;BME280;70471;53.200;6.080;2024-01-27T22:56:06;103357.28;;;20.88;30.29
76122;BME280;70471;53.200;6.080;2024-01-27T23:00:58;103356.59;;;20.81;30.38
76122;BME280;70471;53.200;6.080;2024-01-27T23:05:50;103361.03;;;20.82;29.92
76122;BME280;70471;53.200;6.080;2024-01-27T23:10:44;103357.06;;;20.78;30.48
76122;BME280;70471;53.200;6.080;2024-01-27T23:15:38;103365.28;;;20.73;30.10
76122;BME280;70471;53.200;6.080;2024-01-27T23:20:31;103358.56;;;20.69;30.25
76122;BME280;70471;53.200;6.080;2024-01-27T23:25:24;103358.19;;;20.65;30.43
76122;BME280;70471;53.200;6.080;2024-01-27T23:30:16;103359.53;;;20.63;30.17
76122;BME280;70471;53.200;6.080;2024-01-27T23:35:10;103358.81;;;20.55;30.24
76122;BME280;70471;53.200;6.080;2024-01-27T23:40:03;103340.16;;;20.51;30.40
76122;BME280;70471;53.200;6.080;2024-01-27T23:44:56;103343.06;;;20.56;30.24
76122;BME280;70471;53.200;6.080;2024-01-27T23:49:48;103341.84;;;20.52;30.18
76122;BME280;70471;53.200;6.080;2024-01-27T23:54:43;103337.63;;;20.49;29.93
76122;BME280;70471;53.200;6.080;2024-01-27T23:59:35;103327.41;;;20.50;29.76
